Time;durP1;ratioP1;P1;durP2;ratioP2;P2;SDS_P1;SDS_P2;PMS_P1;PMS_P2;Temp;Humidity;BMP_temperature;BMP_pressure;BME280_temperature;BME280_humidity;BME280_pressure;Samples;Min_cycle;Max_cycle;Signal;HPM_P1;HPM_P2
2021/09/26 00:13:58;;;;;;;25.50;13.37;;;;;;;13.46;100.00;100740.45;714324;1199;115548;-82
2021/09/26 00:29:00;;;;;;;18.90;10.25;;;;;;;13.42;100.00;100744.34;714426;1199;114734;-80
2021/09/26 00:44:03;;;;;;;18.80;10.28;;;;;;;13.48;100.00;100741.13;714757;1199;114161;-81
2021/09/26 00:59:05;;;;;;;24.15;12.48;;;;;;;13.79;100.00;100746.17;715188;1200;114749;-80
2021/09/26 01:14:19;;;;;;;17.60;10.45;;;;;;;13.78;100.00;100755.05;714454;1200;115545;-81
2021/09/26 01:29:42;;;;;;;19.40;11.10;;;;;;;13.96;100.00;100762.19;714279;1205;114793;-81
2021/09/26 01:44:52;;;;;;;20.30;8.90;;;;;;;14.01;100.00;100761.76;714392;1176;114939;-81
2021/09/26 02:00:00;;;;;;;15.28;9.40;;;;;;;14.03;100.00;100780.89;714579;1200;114188;-80
2021/09/26 02:15:09;;;;;;;21.35;11.73;;;;;;;13.82;100.00;100792.52;714316;1176;114362;-80
2021/09/26 02:30:12;;;;;;;28.47;16.23;;;;;;;13.91;100.00;100801.34;714423;1175;114492;-82
2021/09/26 02:45:24;;;;;;;26.20;14.73;;;;;;;13.87;100.00;100808.73;714481;1176;114336;-81
2021/09/26 03:00:39;;;;;;;20.37;10.63;;;;;;;13.45;100.00;100812.57;714353;1200;115103;-83
2021/09/26 03:15:41;;;;;;;20.23;12.00;;;;;;;13.28;100.00;100816.72;714435;1200;114794;-82
2021/09/26 03:30:43;;;;;;;19.00;10.30;;;;;;;12.93;100.00;100833.92;714363;1200;114342;-79
2021/09/26 03:45:50;;;;;;;22.63;12.60;;;;;;;12.66;100.00;100834.56;714277;1177;114601;-82
2021/09/26 04:00:53;;;;;;;17.50;10.87;;;;;;;12.59;100.00;100834.27;714002;1206;114692;-81
2021/09/26 04:15:55;;;;;;;17.43;10.13;;;;;;;12.65;100.00;100849.50;713767;1175;114333;-80
2021/09/26 04:30:58;;;;;;;21.50;12.43;;;;;;;12.54;100.00;100865.42;713817;1185;114219;-80
2021/09/26 04:46:00;;;;;;;19.33;10.00;;;;;;;12.35;100.00;100871.44;713891;1205;114821;-80
2021/09/26 05:01:02;;;;;;;16.65;8.50;;;;;;;12.01;100.00;100882.23;713746;1188;114890;-83
2021/09/26 05:16:06;;;;;;;22.53;11.93;;;;;;;11.88;100.00;100897.35;713549;1206;114318;-80
2021/09/26 05:31:08;;;;;;;17.30;10.90;;;;;;;11.90;100.00;100909.38;714120;1202;115636;-81
2021/09/26 05:46:10;;;;;;;28.33;14.68;;;;;;;12.10;100.00;100917.42;714196;1199;114647;-82
2021/09/26 06:01:13;;;;;;;24.85;12.15;;;;;;;12.55;100.00;100934.67;714430;1199;114708;-84
2021/09/26 06:16:16;;;;;;;20.95;10.70;;;;;;;12.94;100.00;100947.98;714198;1200;114966;-85
2021/09/26 06:31:19;;;;;;;34.40;21.25;;;;;;;14.04;100.00;100961.94;714452;1205;114404;-80
2021/09/26 06:46:22;;;;;;;72.63;33.50;;;;;;;15.23;100.00;100982.48;714165;1200;114994;-81
2021/09/26 07:01:24;;;;;;;37.67;20.90;;;;;;;16.91;100.00;100994.05;714176;1200;115475;-81
2021/09/26 07:16:27;;;;;;;25.00;11.48;;;;;;;17.78;100.00;101007.02;714319;1202;115724;-86
2021/09/26 07:31:29;;;;;;;13.63;6.88;;;;;;;17.61;100.00;101032.69;714652;1206;115545;-87
2021/09/26 07:46:33;;;;;;;24.98;11.80;;;;;;;17.64;100.00;101042.97;714670;1199;114699;-84
2021/09/26 08:01:35;;;;;;;11.00;4.73;;;;;;;19.20;100.00;101043.80;714113;1200;115933;-75
2021/09/26 08:16:37;;;;;;;12.45;6.00;;;;;;;20.05;100.00;101042.13;714104;1203;114691;-74
2021/09/26 08:31:40;;;;;;;14.90;6.33;;;;;;;20.94;100.00;101052.91;714099;1200;115306;-73
2021/09/26 08:46:43;;;;;;;13.25;6.43;;;;;;;21.70;100.00;101062.42;714204;1178;115695;-77
2021/09/26 09:01:46;;;;;;;12.05;3.65;;;;;;;22.48;96.03;101074.22;714228;1199;115713;-77
2021/09/26 09:16:54;;;;;;;15.97;3.77;;;;;;;22.75;91.40;101081.38;714036;1205;115144;-75
2021/09/26 09:31:58;;;;;;;12.48;4.15;;;;;;;22.95;87.21;101069.97;714089;1203;114137;-77
2021/09/26 09:47:02;;;;;;;13.50;3.35;;;;;;;23.83;85.12;101071.09;714258;1199;114465;-75
2021/09/26 10:02:04;;;;;;;9.48;3.48;;;;;;;23.72;80.98;101064.48;714204;1200;114505;-79
2021/09/26 10:17:08;;;;;;;10.53;3.70;;;;;;;23.88;78.56;101076.66;714166;1202;115094;-77
2021/09/26 10:32:11;;;;;;;8.65;2.78;;;;;;;24.03;79.25;101068.45;714265;1199;113984;-75
2021/09/26 10:47:23;;;;;;;9.88;3.05;;;;;;;24.00;77.28;101061.64;714716;1200;114652;-78
2021/09/26 11:02:26;;;;;;;11.23;5.63;;;;;;;23.10;77.12;101067.96;715861;1200;113841;-78
2021/09/26 11:17:42;;;;;;;11.00;5.20;;;;;;;24.01;78.60;101065.17;714350;1189;113951;-74
2021/09/26 11:32:55;;;;;;;11.58;4.33;;;;;;;25.70;76.68;101049.19;715932;1202;114262;-75
2021/09/26 11:48:04;;;;;;;8.17;2.77;;;;;;;25.38;70.90;101046.50;715044;1200;113844;-75
2021/09/26 12:03:15;;;;;;;8.53;2.50;;;;;;;25.10;69.30;101030.70;714714;1200;115951;-76
2021/09/26 12:18:25;;;;;;;8.55;3.25;;;;;;;25.35;67.83;101021.94;714447;1203;114599;-75
2021/09/26 12:33:40;;;;;;;7.63;2.40;;;;;;;26.75;66.59;101025.30;714973;1177;114455;-75
2021/09/26 12:48:46;;;;;;;7.23;3.15;;;;;;;27.09;63.79;101022.22;715975;1200;114759;-75
2021/09/26 13:03:56;;;;;;;6.10;2.33;;;;;;;27.45;62.46;101009.72;715018;1200;114617;-75
2021/09/26 13:19:27;;;;;;;6.20;1.95;;;;;;;28.95;61.62;101005.83;715304;1205;114249;-75
2021/09/26 13:34:31;;;;;;;6.13;2.30;;;;;;;32.66;58.84;101002.03;714607;1200;114685;-75
2021/09/26 13:49:33;;;;;;;5.20;2.40;;;;;;;38.34;51.09;100987.28;714173;1205;114826;-77
2021/09/26 14:04:36;;;;;;;6.03;2.15;;;;;;;36.30;48.28;100984.52;713813;1204;113701;-76
2021/09/26 14:19:38;;;;;;;7.17;2.67;;;;;;;27.61;53.74;100976.73;713934;1206;113831;-77
2021/09/26 14:34:41;;;;;;;6.60;4.07;;;;;;;25.05;59.61;100983.05;713835;1199;115137;-76
2021/09/26 14:49:44;;;;;;;15.00;6.13;;;;;;;24.14;63.27;100990.13;713722;1205;114252;-75
2021/09/26 15:04:48;;;;;;;36.78;29.45;;;;;;;23.06;67.27;100991.80;713785;1178;114703;-75
2021/09/26 15:19:51;;;;;;;57.53;31.03;;;;;;;22.81;69.80;101004.88;713870;1202;115548;-76
2021/09/26 15:34:54;;;;;;;58.35;35.75;;;;;;;22.25;71.65;100987.89;713803;1205;115146;-74
2021/09/26 15:49:56;;;;;;;35.58;20.80;;;;;;;22.15;74.27;100990.07;713987;1202;115284;-75
2021/09/26 16:04:58;;;;;;;28.08;18.13;;;;;;;21.24;76.78;100980.00;714170;1203;114595;-81
2021/09/26 16:20:01;;;;;;;40.13;22.90;;;;;;;20.54;78.79;100985.68;714150;1199;114388;-75
2021/09/26 16:35:05;;;;;;;26.48;14.70;;;;;;;19.60;81.61;100975.39;714277;1177;114260;-75
2021/09/26 16:50:11;;;;;;;67.08;36.33;;;;;;;19.00;84.17;100990.22;714291;1200;113901;-76
2021/09/26 17:05:15;;;;;;;76.28;45.78;;;;;;;18.23;87.67;100997.72;714153;1200;116245;-73
2021/09/26 17:20:22;;;;;;;47.43;27.20;;;;;;;17.66;89.98;101014.47;714023;1176;115028;-77
2021/09/26 17:35:27;;;;;;;16.73;8.67;;;;;;;17.25;91.78;101023.16;714252;1177;114384;-77
2021/09/26 17:50:33;;;;;;;26.68;13.70;;;;;;;16.88;93.10;101021.67;714159;1202;114349;-75
2021/09/26 18:05:36;;;;;;;16.48;7.80;;;;;;;16.54;94.78;101035.72;714103;1176;115013;-75
2021/09/26 18:20:44;;;;;;;17.00;8.58;;;;;;;16.32;95.39;101031.77;714354;1174;115188;-76
2021/09/26 18:35:47;;;;;;;13.70;6.58;;;;;;;16.09;96.28;101048.14;714335;1200;114526;-76
2021/09/26 18:50:50;;;;;;;12.73;5.25;;;;;;;15.78;97.03;101056.45;714300;1174;114010;-74
2021/09/26 19:05:54;;;;;;;13.33;5.40;;;;;;;15.70;97.61;101051.05;714533;1174;114517;-72
2021/09/26 19:20:57;;;;;;;13.73;5.93;;;;;;;15.37;98.27;101063.92;715251;1199;115382;-74
2021/09/26 19:36:00;;;;;;;14.00;6.87;;;;;;;15.16;98.95;101053.60;714526;1200;114330;-74
2021/09/26 19:51:03;;;;;;;12.78;7.20;;;;;;;14.93;100.00;101058.44;714206;1180;113986;-73
2021/09/26 20:06:05;;;;;;;31.80;14.67;;;;;;;14.80;100.00;101067.50;714654;1200;115217;-74
2021/09/26 20:21:11;;;;;;;10.80;5.63;;;;;;;14.52;100.00;101066.59;715026;1200;114958;-73
2021/09/26 20:36:15;;;;;;;15.98;5.05;;;;;;;14.35;100.00;101099.80;715105;1177;114308;-74
2021/09/26 20:51:18;;;;;;;11.10;6.10;;;;;;;14.02;100.00;101103.70;714474;1200;115530;-74
2021/09/26 21:06:20;;;;;;;59.65;26.70;;;;;;;13.90;100.00;101118.83;714508;1200;115154;-73
2021/09/26 21:21:24;;;;;;;19.20;8.40;;;;;;;13.59;100.00;101124.16;714451;1177;113915;-73
2021/09/26 21:36:27;;;;;;;13.00;5.88;;;;;;;13.34;100.00;101131.52;714842;1200;114177;-74
2021/09/26 21:51:29;;;;;;;13.03;5.93;;;;;;;13.29;100.00;101128.48;714420;1202;115273;-73
2021/09/26 22:06:32;;;;;;;27.70;11.53;;;;;;;12.87;100.00;101126.73;714541;1177;115920;-73
2021/09/26 22:21:37;;;;;;;41.38;15.25;;;;;;;12.62;100.00;101135.86;714622;1174;114924;-71
2021/09/26 22:36:41;;;;;;;31.30;13.00;;;;;;;12.39;100.00;101135.13;714158;1200;115230;-74
2021/09/26 22:51:43;;;;;;;14.05;5.55;;;;;;;12.49;100.00;101143.94;713814;1202;114518;-73
2021/09/26 23:06:45;;;;;;;12.95;5.50;;;;;;;12.45;100.00;101150.41;713821;1199;114865;-73
2021/09/26 23:21:48;;;;;;;13.57;9.47;;;;;;;12.48;100.00;101135.22;713812;1200;114645;-73
2021/09/26 23:36:51;;;;;;;16.23;6.23;;;;;;;12.43;100.00;101131.27;713974;1200;114617;-74
2021/09/26 23:51:53;;;;;;;10.30;5.57;;;;;;;12.39;100.00;101132.48;713851;1206;115149;-73
